createdAt,value
2018-11-14T00:00:26.232Z,2.57
2018-11-14T00:02:56.200Z,2.80
2018-11-14T00:05:25.416Z,3.23
2018-11-14T00:07:54.644Z,3.00
2018-11-14T00:10:23.872Z,2.80
2018-11-14T00:12:53.096Z,2.70
2018-11-14T00:15:23.492Z,2.83
2018-11-14T00:17:53.100Z,2.93
2018-11-14T00:20:22.313Z,2.97
2018-11-14T00:22:52.216Z,3.70
2018-11-14T00:25:21.416Z,3.07
2018-11-14T00:27:50.762Z,2.90
2018-11-14T00:30:22.277Z,3.70
2018-11-14T00:32:51.576Z,2.90
2018-11-14T00:35:21.145Z,3.20
2018-11-14T00:37:50.713Z,2.83
2018-11-14T00:40:20.497Z,3.23
2018-11-14T00:42:50.335Z,3.07
2018-11-14T00:45:20.808Z,2.90
2018-11-14T00:47:50.448Z,2.90
2018-11-14T00:50:20.159Z,2.90
2018-11-14T00:52:49.480Z,3.00
2018-11-14T00:55:21.008Z,3.20
2018-11-14T00:57:51.228Z,3.20
2018-11-14T01:00:25.494Z,2.87
2018-11-14T01:02:55.160Z,2.73
2018-11-14T01:05:24.524Z,3.90
2018-11-14T01:07:53.782Z,3.10
2018-11-14T01:10:23.363Z,3.30
2018-11-14T01:12:52.868Z,3.20
2018-11-14T01:15:23.206Z,3.40
2018-11-14T01:17:52.417Z,3.17
2018-11-14T01:20:22.540Z,3.93
2018-11-14T01:22:51.851Z,4.10
2018-11-14T01:25:21.102Z,3.40
2018-11-14T01:27:50.316Z,3.37
2018-11-14T01:30:21.656Z,3.20
2018-11-14T01:32:51.264Z,3.37
2018-11-14T01:35:20.869Z,3.00
2018-11-14T01:37:50.143Z,3.60
2018-11-14T01:40:22.321Z,3.70
2018-11-14T01:42:52.868Z,3.20
2018-11-14T01:45:22.125Z,4.17
2018-11-14T01:47:51.392Z,3.20
2018-11-14T01:50:20.640Z,3.37
2018-11-14T01:52:49.963Z,3.40
2018-11-14T01:55:20.395Z,3.37
2018-11-14T01:57:49.586Z,3.20
2018-11-14T02:00:23.526Z,3.77
2018-11-14T02:02:52.923Z,3.70
2018-11-14T02:05:23.014Z,3.37
2018-11-14T02:07:52.299Z,3.50
2018-11-14T02:10:21.727Z,3.57
2018-11-14T02:12:50.955Z,4.17
2018-11-14T02:15:21.460Z,3.20
2018-11-14T02:17:50.680Z,3.23
2018-11-14T02:20:19.873Z,3.40
2018-11-14T02:22:49.123Z,3.20
2018-11-14T02:25:18.542Z,3.50
2018-11-14T02:27:47.784Z,3.20
2018-11-14T02:30:19.229Z,3.50
2018-11-14T02:32:48.470Z,3.47
2018-11-14T02:35:17.695Z,3.20
2018-11-14T02:37:47.200Z,3.40
2018-11-14T02:40:18.047Z,3.80
2018-11-14T02:42:47.298Z,3.53
2018-11-14T02:45:16.776Z,3.73
2018-11-14T02:47:45.968Z,3.50
2018-11-14T02:50:16.366Z,3.70
2018-11-14T02:52:45.592Z,3.33
2018-11-14T02:55:15.785Z,4.07
2018-11-14T02:57:45.399Z,4.10
2018-11-14T03:00:18.586Z,3.40
2018-11-14T03:02:47.818Z,3.73
2018-11-14T03:05:17.059Z,4.20
2018-11-14T03:07:46.294Z,4.17
2018-11-14T03:10:17.833Z,3.60
2018-11-14T03:12:47.135Z,3.43
2018-11-14T03:15:19.532Z,3.50
2018-11-14T03:17:48.736Z,4.47
2018-11-14T03:20:20.062Z,4.33
2018-11-14T03:22:49.380Z,3.73
2018-11-14T03:25:18.578Z,3.73
2018-11-14T03:27:47.788Z,3.63
2018-11-14T03:30:18.393Z,3.70
2018-11-14T03:32:47.657Z,3.73
2018-11-14T03:35:16.880Z,3.63
2018-11-14T03:37:46.082Z,3.73
2018-11-14T03:40:16.498Z,3.57
2018-11-14T03:42:46.017Z,3.50
2018-11-14T03:45:16.366Z,4.23
2018-11-14T03:47:45.570Z,3.90
2018-11-14T03:50:14.769Z,4.00
2018-11-14T03:52:44.062Z,3.63
2018-11-14T03:55:13.260Z,3.87
2018-11-14T03:57:42.458Z,3.70
2018-11-14T04:00:14.872Z,4.20
2018-11-14T04:02:45.227Z,4.00
2018-11-14T04:05:14.429Z,3.80
2018-11-14T04:07:43.701Z,4.13
2018-11-14T04:10:14.052Z,4.00
2018-11-14T04:12:43.550Z,3.63
2018-11-14T04:15:14.091Z,4.10
2018-11-14T04:17:43.253Z,4.00
2018-11-14T04:20:14.218Z,3.90
2018-11-14T04:22:43.546Z,4.30
2018-11-14T04:25:14.866Z,3.67
2018-11-14T04:27:44.985Z,4.23
2018-11-14T04:30:15.727Z,3.30
2018-11-14T04:32:45.206Z,3.53
2018-11-14T04:35:15.607Z,3.57
2018-11-14T04:37:45.115Z,3.60
2018-11-14T04:40:16.513Z,3.40
2018-11-14T04:42:46.188Z,3.23
2018-11-14T04:45:17.048Z,3.20
2018-11-14T04:47:46.298Z,4.00
2018-11-14T04:50:17.706Z,3.27
2018-11-14T04:52:47.835Z,3.67
2018-11-14T04:55:18.188Z,3.50
2018-11-14T04:57:47.648Z,3.37
2018-11-14T05:00:17.802Z,4.33
2018-11-14T05:02:47.811Z,3.60
2018-11-14T05:05:18.344Z,3.70
2018-11-14T05:07:47.764Z,3.23
2018-11-14T05:10:19.417Z,3.40
2018-11-14T05:12:49.310Z,5.73
2018-11-14T05:15:20.748Z,3.47
2018-11-14T05:17:50.573Z,3.63
2018-11-14T05:20:20.576Z,3.97
2018-11-14T05:22:50.142Z,9.17
2018-11-14T05:25:19.632Z,14.33
2018-11-14T05:27:48.853Z,16.73
2018-11-14T05:30:19.625Z,12.13
2018-11-14T05:32:49.738Z,16.03
2018-11-14T05:35:18.944Z,12.00
2018-11-14T05:37:48.770Z,12.80
2018-11-14T05:40:19.260Z,21.77
2018-11-14T05:42:49.105Z,12.43
2018-11-14T05:45:19.983Z,10.63
2018-11-14T05:47:49.200Z,9.13
2018-11-14T05:50:19.549Z,9.00
2018-11-14T05:52:48.845Z,9.10
2018-11-14T05:55:18.257Z,8.83
2018-11-14T05:57:47.557Z,8.80
2018-11-14T06:00:21.905Z,7.73
2018-11-14T06:02:51.204Z,7.87
2018-11-14T06:05:20.429Z,10.50
2018-11-14T06:07:49.695Z,8.03
2018-11-14T06:10:18.896Z,8.80
2018-11-14T06:12:48.167Z,8.33
2018-11-14T06:15:18.747Z,10.77
2018-11-14T06:17:49.104Z,8.40
2018-11-14T06:20:19.577Z,7.33
2018-11-14T06:22:49.642Z,8.90
2018-11-14T06:25:25.764Z,7.73
2018-11-14T06:27:55.851Z,7.70
2018-11-14T06:30:25.388Z,6.93
2018-11-14T06:32:55.268Z,7.87
2018-11-14T06:35:24.681Z,11.13
2018-11-14T06:37:54.425Z,6.80
2018-11-14T06:40:23.677Z,7.87
2018-11-14T06:42:53.008Z,6.40
2018-11-14T06:45:23.616Z,6.67
2018-11-14T06:47:54.267Z,7.40
2018-11-14T06:50:23.514Z,6.60
2018-11-14T06:52:54.148Z,7.20
2018-11-14T06:55:23.365Z,6.67
2018-11-14T06:57:52.669Z,6.90
2018-11-14T07:00:24.952Z,7.20
2018-11-14T07:02:54.837Z,6.90
2018-11-14T07:05:24.255Z,6.40
2018-11-14T07:07:53.498Z,7.17
2018-11-14T07:10:24.831Z,6.47
2018-11-14T07:12:54.185Z,6.60
2018-11-14T07:15:24.227Z,7.77
2018-11-14T07:17:53.539Z,6.13
2018-11-14T07:20:28.997Z,6.30
2018-11-14T07:22:58.345Z,8.00
2018-11-14T07:25:27.582Z,6.43
2018-11-14T07:27:57.061Z,6.30
2018-11-14T07:30:27.501Z,6.10
2018-11-14T07:33:04.417Z,6.53
2018-11-14T07:35:33.677Z,7.03
2018-11-14T07:38:37.506Z,6.90
2018-11-14T07:41:08.453Z,6.20
2018-11-14T07:43:38.413Z,6.50
2018-11-14T07:46:07.966Z,6.43
2018-11-14T07:48:37.564Z,6.70
2018-11-14T07:51:07.661Z,6.53
2018-11-14T07:53:37.021Z,6.17
2018-11-14T07:56:06.308Z,6.60
2018-11-14T07:58:35.513Z,6.30
2018-11-14T08:01:04.784Z,6.63
2018-11-14T08:03:34.080Z,6.67
2018-11-14T08:06:03.386Z,6.60
2018-11-14T08:08:32.844Z,5.70
2018-11-14T08:11:02.082Z,5.90
2018-11-14T08:13:32.641Z,7.30
2018-11-14T08:16:02.428Z,7.00
2018-11-14T08:18:31.700Z,6.70
2018-11-14T08:21:01.740Z,6.37
2018-11-14T08:23:31.085Z,7.20
2018-11-14T08:26:00.356Z,6.43
2018-11-14T08:28:29.616Z,6.30
2018-11-14T08:30:58.836Z,6.57
2018-11-14T08:33:28.117Z,6.57
2018-11-14T08:35:57.358Z,6.87
2018-11-14T08:38:26.617Z,6.40
2018-11-14T08:40:56.060Z,6.33
2018-11-14T08:43:25.343Z,6.70
2018-11-14T08:45:54.698Z,5.83
2018-11-14T08:48:24.064Z,6.47
2018-11-14T08:50:53.377Z,6.67
2018-11-14T08:53:22.825Z,5.93
2018-11-14T08:55:52.537Z,6.50
2018-11-14T08:58:21.829Z,7.33
2018-11-14T09:00:51.056Z,7.50
2018-11-14T09:03:20.332Z,7.47
2018-11-14T09:05:49.571Z,6.30
2018-11-14T09:08:18.761Z,7.07
2018-11-14T09:10:48.060Z,6.57
2018-11-14T09:13:17.916Z,6.50
2018-11-14T09:15:47.205Z,8.30
2018-11-14T09:18:16.507Z,9.87
2018-11-14T09:20:45.667Z,7.10
2018-11-14T09:23:14.940Z,10.10
2018-11-14T09:25:44.229Z,6.83
2018-11-14T09:28:13.496Z,9.70
2018-11-14T09:30:42.707Z,7.23
2018-11-14T09:33:12.199Z,6.20
2018-11-14T09:35:41.344Z,6.90
2018-11-14T09:38:10.593Z,6.07
2018-11-14T09:40:39.865Z,6.77
2018-11-14T09:43:09.146Z,6.33
2018-11-14T09:45:38.397Z,6.17
2018-11-14T09:48:07.677Z,6.20
2018-11-14T09:50:36.874Z,7.30
2018-11-14T09:53:06.934Z,8.47
2018-11-14T09:55:36.154Z,7.03
2018-11-14T09:58:05.485Z,6.47
2018-11-14T10:00:35.530Z,6.33
2018-11-14T10:03:12.385Z,6.00
2018-11-14T10:05:41.686Z,7.80
2018-11-14T10:08:10.998Z,6.17
2018-11-14T10:10:40.382Z,7.33
2018-11-14T10:13:09.712Z,6.10
2018-11-14T10:15:38.970Z,6.50
2018-11-14T10:18:08.208Z,8.30
2018-11-14T10:20:37.454Z,7.37
2018-11-14T10:23:06.880Z,6.07
2018-11-14T10:25:36.161Z,6.10
2018-11-14T10:28:05.475Z,6.83
2018-11-14T10:30:34.820Z,5.93
2018-11-14T10:33:04.204Z,5.70
2018-11-14T10:35:33.432Z,5.27
2018-11-14T10:38:02.758Z,6.50
2018-11-14T10:40:31.987Z,6.07
2018-11-14T10:43:01.362Z,6.70
2018-11-14T10:45:30.576Z,5.33
2018-11-14T10:47:59.825Z,5.60
2018-11-14T10:50:29.040Z,5.20
2018-11-14T10:52:58.383Z,5.77
2018-11-14T10:55:27.668Z,22.07
2018-11-14T10:57:56.878Z,29.83
2018-11-14T11:00:47.298Z,21.63
2018-11-14T11:03:22.018Z,17.30
2018-11-14T11:05:56.364Z,14.57
2018-11-14T11:08:30.743Z,21.93
2018-11-14T11:11:05.103Z,14.93
2018-11-14T11:13:39.698Z,10.97
2018-11-14T11:16:14.032Z,14.90
2018-11-14T11:18:43.280Z,14.80
2018-11-14T11:21:12.514Z,14.67
2018-11-14T11:23:41.837Z,10.93
2018-11-14T11:26:11.061Z,13.43
2018-11-14T11:28:40.377Z,17.20
2018-11-14T11:31:09.700Z,15.70
2018-11-14T11:33:39.006Z,19.27
2018-11-14T11:36:08.299Z,19.60
2018-11-14T11:38:37.633Z,14.80
2018-11-14T11:41:06.901Z,10.73
2018-11-14T11:43:36.287Z,15.50
2018-11-14T11:46:05.641Z,13.13
2018-11-14T11:48:34.880Z,12.97
2018-11-14T11:51:04.129Z,11.73
2018-11-14T11:53:33.356Z,12.57
2018-11-14T11:56:02.622Z,9.40
2018-11-14T11:58:34.712Z,9.80
2018-11-14T12:01:03.949Z,11.57
2018-11-14T12:03:33.271Z,9.77
2018-11-14T12:06:02.668Z,7.37
2018-11-14T12:08:31.788Z,6.57
2018-11-14T12:11:01.045Z,8.20
2018-11-14T12:13:30.382Z,9.30
2018-11-14T12:15:59.789Z,9.30
2018-11-14T12:18:29.061Z,10.67
2018-11-14T12:20:58.305Z,9.03
2018-11-14T12:23:27.702Z,7.83
2018-11-14T12:25:56.915Z,7.97
2018-11-14T12:28:26.194Z,6.20
2018-11-14T12:30:55.627Z,7.13
2018-11-14T12:33:24.845Z,8.03
2018-11-14T12:35:54.199Z,8.00
2018-11-14T12:38:23.447Z,8.03
2018-11-14T12:40:52.675Z,8.13
2018-11-14T12:43:21.982Z,9.07
2018-11-14T12:45:52.164Z,9.03
2018-11-14T12:48:21.437Z,8.33
2018-11-14T12:50:50.645Z,6.63
2018-11-14T12:53:19.901Z,10.40
2018-11-14T12:55:49.161Z,8.00
2018-11-14T12:58:18.372Z,8.63
2018-11-14T13:00:47.586Z,8.07
2018-11-14T13:03:16.914Z,5.27
2018-11-14T13:05:46.157Z,6.20
2018-11-14T13:08:15.484Z,5.60
2018-11-14T13:10:44.696Z,5.07
2018-11-14T13:13:13.993Z,9.27
2018-11-14T13:15:43.273Z,4.30
2018-11-14T13:18:12.515Z,7.03
2018-11-14T13:20:41.809Z,8.10
2018-11-14T13:23:11.161Z,5.97
2018-11-14T13:25:40.409Z,6.30
2018-11-14T13:28:09.626Z,7.40
2018-11-14T13:30:38.893Z,5.90
2018-11-14T13:33:08.177Z,4.97
2018-11-14T13:35:37.596Z,7.20
2018-11-14T13:38:07.197Z,10.40
2018-11-14T13:40:36.634Z,7.53
2018-11-14T13:43:06.302Z,8.83
2018-11-14T13:45:35.440Z,7.93
2018-11-14T13:48:05.158Z,8.10
2018-11-14T13:50:34.477Z,9.73
2018-11-14T13:53:03.716Z,10.63
2018-11-14T13:55:32.919Z,8.67
2018-11-14T13:58:02.111Z,6.30
2018-11-14T14:00:31.344Z,12.37
2018-11-14T14:03:00.665Z,10.27
2018-11-14T14:05:29.936Z,5.60
2018-11-14T14:07:59.301Z,9.93
2018-11-14T14:10:28.567Z,9.90
2018-11-14T14:12:58.021Z,4.80
2018-11-14T14:15:28.028Z,7.33
2018-11-14T14:17:57.441Z,5.67
2018-11-14T14:20:26.640Z,7.73
2018-11-14T14:22:55.913Z,5.47
2018-11-14T14:25:25.260Z,7.10
2018-11-14T14:27:54.489Z,6.77
2018-11-14T14:30:24.251Z,5.17
2018-11-14T14:32:53.543Z,9.47
2018-11-14T14:35:23.588Z,4.10
2018-11-14T14:37:52.893Z,6.33
2018-11-14T14:40:26.210Z,6.40
2018-11-14T14:42:55.536Z,3.80
2018-11-14T14:45:26.142Z,4.93
2018-11-14T14:47:55.410Z,4.20
2018-11-14T14:50:24.640Z,5.53
2018-11-14T14:52:53.960Z,4.47
2018-11-14T14:55:24.621Z,6.43
2018-11-14T14:57:53.881Z,4.37
2018-11-14T15:00:25.414Z,11.23
2018-11-14T15:02:54.784Z,4.53
2018-11-14T15:05:24.059Z,5.10
2018-11-14T15:07:53.277Z,4.17
2018-11-14T15:10:23.622Z,4.17
2018-11-14T15:12:52.888Z,5.10
2018-11-14T15:15:22.182Z,4.70
2018-11-14T15:17:51.714Z,4.17
2018-11-14T15:20:23.197Z,4.03
2018-11-14T15:22:52.747Z,4.37
2018-11-14T15:25:23.109Z,4.20
2018-11-14T15:27:52.735Z,4.37
2018-11-14T15:30:25.686Z,3.97
2018-11-14T15:32:55.052Z,3.80
2018-11-14T15:35:24.481Z,4.30
2018-11-14T15:37:53.675Z,5.60
2018-11-14T15:40:24.317Z,5.70
2018-11-14T15:42:53.939Z,4.07
2018-11-14T15:45:25.348Z,6.07
2018-11-14T15:47:54.773Z,4.10
2018-11-14T15:50:25.437Z,4.67
2018-11-14T15:52:55.636Z,3.90
2018-11-14T15:55:24.963Z,4.67
2018-11-14T15:57:54.320Z,4.40
2018-11-14T16:00:29.773Z,3.63
2018-11-14T16:02:59.087Z,4.23
2018-11-14T16:05:29.697Z,6.30
2018-11-14T16:08:00.074Z,4.20
2018-11-14T16:10:30.284Z,3.77
2018-11-14T16:12:59.563Z,5.47
2018-11-14T16:15:36.146Z,3.57
2018-11-14T16:18:05.636Z,4.30
2018-11-14T16:20:35.009Z,4.63
2018-11-14T16:23:04.365Z,4.43
2018-11-14T16:25:33.704Z,5.23
2018-11-14T16:28:03.345Z,4.47
2018-11-14T16:30:34.495Z,4.23
2018-11-14T16:33:05.067Z,4.03
2018-11-14T16:35:34.398Z,4.77
2018-11-14T16:38:03.665Z,4.90
2018-11-14T16:40:34.039Z,6.03
2018-11-14T16:43:05.028Z,5.50
2018-11-14T16:45:34.278Z,3.33
2018-11-14T16:48:03.617Z,3.63
2018-11-14T16:50:33.113Z,3.83
2018-11-14T16:53:02.360Z,4.77
2018-11-14T16:55:31.596Z,5.60
2018-11-14T16:58:00.825Z,4.47
2018-11-14T17:00:31.217Z,5.17
2018-11-14T17:03:00.853Z,3.67
2018-11-14T17:05:31.274Z,4.00
2018-11-14T17:08:00.516Z,4.07
2018-11-14T17:10:29.743Z,3.80
2018-11-14T17:13:00.174Z,3.53
2018-11-14T17:15:29.532Z,3.80
2018-11-14T17:17:58.741Z,4.30
2018-11-14T17:20:27.992Z,3.83
2018-11-14T17:22:57.824Z,6.27
2018-11-14T17:25:27.075Z,6.70
2018-11-14T17:27:56.320Z,4.87
2018-11-14T17:30:26.759Z,4.53
2018-11-14T17:32:56.319Z,5.23
2018-11-14T17:35:25.640Z,5.87
2018-11-14T17:37:54.895Z,3.93
2018-11-14T17:40:28.512Z,5.13
2018-11-14T17:42:57.946Z,4.10
2018-11-14T17:45:28.560Z,4.30
2018-11-14T17:47:58.367Z,5.20
2018-11-14T17:50:29.021Z,5.23
2018-11-14T17:52:59.242Z,3.93
2018-11-14T17:55:28.919Z,5.03
2018-11-14T17:57:58.051Z,4.50
2018-11-14T18:00:28.561Z,5.10
2018-11-14T18:02:57.851Z,4.63
2018-11-14T18:05:28.436Z,5.57
2018-11-14T18:07:57.657Z,4.97
2018-11-14T18:10:28.180Z,4.33
2018-11-14T18:12:58.640Z,3.50
2018-11-14T18:15:27.838Z,4.07
2018-11-14T18:17:57.570Z,5.27
2018-11-14T18:20:28.181Z,10.50
2018-11-14T18:22:57.697Z,8.17
2018-11-14T18:25:27.122Z,5.23
2018-11-14T18:27:56.383Z,3.80
2018-11-14T18:30:26.575Z,5.17
2018-11-14T18:32:56.784Z,5.73
2018-11-14T18:35:26.643Z,3.87
2018-11-14T18:37:56.669Z,3.87
2018-11-14T18:40:27.431Z,4.63
2018-11-14T18:42:56.766Z,6.30
2018-11-14T18:45:27.954Z,6.87
2018-11-14T18:47:57.878Z,5.47
2018-11-14T18:50:27.480Z,10.43
2018-11-14T18:52:56.741Z,8.00
2018-11-14T18:55:27.490Z,8.20
2018-11-14T18:57:57.282Z,8.50
2018-11-14T19:00:29.709Z,12.97
2018-11-14T19:02:59.240Z,9.37
2018-11-14T19:05:28.488Z,8.33
2018-11-14T19:07:57.791Z,8.67
2018-11-14T19:10:29.243Z,11.57
2018-11-14T19:12:58.537Z,6.53
2018-11-14T19:15:29.195Z,6.57
2018-11-14T19:17:58.468Z,6.70
2018-11-14T19:20:29.821Z,7.43
2018-11-14T19:23:00.068Z,5.70
2018-11-14T19:25:31.496Z,5.63
2018-11-14T19:28:01.200Z,4.83
2018-11-14T19:30:31.706Z,6.00
2018-11-14T19:33:01.670Z,6.03
2018-11-14T19:35:30.966Z,6.77
2018-11-14T19:38:00.455Z,6.30
2018-11-14T19:40:31.711Z,10.23
2018-11-14T19:43:02.250Z,4.53
2018-11-14T19:45:33.249Z,5.47
2018-11-14T19:48:02.477Z,7.00
2018-11-14T19:50:31.802Z,4.37
2018-11-14T19:53:01.038Z,7.00
2018-11-14T19:55:30.844Z,6.40
2018-11-14T19:58:01.418Z,5.37
2018-11-14T20:00:32.969Z,6.47
2018-11-14T20:03:02.255Z,6.60
2018-11-14T20:05:31.435Z,5.63
2018-11-14T20:08:00.651Z,6.43
2018-11-14T20:10:31.260Z,5.73
2018-11-14T20:13:00.478Z,5.87
2018-11-14T20:15:31.022Z,8.03
2018-11-14T20:17:59.751Z,6.10
2018-11-14T20:20:29.845Z,4.77
2018-11-14T20:22:58.671Z,4.70
2018-11-14T20:25:27.943Z,5.07
2018-11-14T20:27:57.321Z,4.20
2018-11-14T20:30:27.912Z,4.67
2018-11-14T20:32:58.498Z,5.70
2018-11-14T20:35:28.297Z,5.33
2018-11-14T20:37:57.541Z,4.43
2018-11-14T20:40:27.418Z,4.10
2018-11-14T20:42:56.987Z,5.70
2018-11-14T20:45:29.423Z,4.83
2018-11-14T20:47:58.648Z,5.67
2018-11-14T20:50:28.421Z,9.43
2018-11-14T20:52:59.239Z,4.13
2018-11-14T20:55:28.736Z,5.57
2018-11-14T20:57:58.282Z,4.23
2018-11-14T21:00:28.889Z,4.73
2018-11-14T21:02:58.198Z,4.37
2018-11-14T21:05:28.055Z,5.20
2018-11-14T21:07:57.363Z,3.87
2018-11-14T21:10:28.836Z,4.67
2018-11-14T21:12:58.812Z,4.23
2018-11-14T21:15:29.580Z,6.30
2018-11-14T21:18:00.014Z,6.90
2018-11-14T21:20:29.215Z,5.80
2018-11-14T21:22:58.468Z,4.97
2018-11-14T21:25:28.127Z,4.30
2018-11-14T21:27:57.821Z,5.20
2018-11-14T21:30:28.250Z,7.67
2018-11-14T21:32:57.481Z,7.23
2018-11-14T21:35:30.285Z,4.80
2018-11-14T21:38:00.528Z,7.33
2018-11-14T21:40:29.756Z,4.90
2018-11-14T21:42:58.988Z,6.97
2018-11-14T21:45:29.068Z,5.57
2018-11-14T21:48:03.421Z,5.67
2018-11-14T21:50:33.096Z,4.67
2018-11-14T21:53:02.332Z,4.73
2018-11-14T21:55:31.528Z,6.10
2018-11-14T21:58:00.802Z,4.83
2018-11-14T22:00:32.324Z,5.43
2018-11-14T22:03:01.836Z,6.43
2018-11-14T22:05:31.157Z,4.30
2018-11-14T22:08:00.329Z,5.57
2018-11-14T22:10:29.511Z,4.60
2018-11-14T22:12:58.781Z,4.67
2018-11-14T22:15:28.873Z,4.40
2018-11-14T22:17:58.093Z,4.40
2018-11-14T22:20:28.086Z,6.07
2018-11-14T22:22:57.385Z,4.73
2018-11-14T22:25:27.802Z,4.47
2018-11-14T22:27:57.427Z,4.27
2018-11-14T22:30:28.121Z,4.87
2018-11-14T22:32:57.373Z,4.27
2018-11-14T22:35:27.740Z,5.30
2018-11-14T22:37:56.998Z,4.53
2018-11-14T22:40:27.402Z,4.53
2018-11-14T22:42:56.633Z,5.43
2018-11-14T22:45:27.944Z,5.10
2018-11-14T22:47:57.142Z,4.30
2018-11-14T22:50:26.749Z,4.00
2018-11-14T22:52:56.024Z,4.30
2018-11-14T22:55:25.960Z,4.30
2018-11-14T22:57:55.408Z,4.27
2018-11-14T23:00:33.066Z,4.53
2018-11-14T23:03:03.594Z,5.17
2018-11-14T23:05:32.764Z,4.73
2018-11-14T23:08:02.324Z,4.17
2018-11-14T23:10:31.525Z,4.60
2018-11-14T23:13:00.720Z,4.50
2018-11-14T23:15:29.988Z,6.00
2018-11-14T23:17:59.127Z,3.97
2018-11-14T23:20:28.312Z,4.20
2018-11-14T23:22:57.568Z,4.60
2018-11-14T23:25:26.785Z,5.23
2018-11-14T23:27:56.605Z,5.47
2018-11-14T23:30:27.027Z,4.50
2018-11-14T23:32:57.144Z,4.77
2018-11-14T23:35:27.585Z,4.87
2018-11-14T23:37:58.022Z,4.13
2018-11-14T23:40:27.887Z,5.07
2018-11-14T23:42:57.111Z,5.50
2018-11-14T23:45:27.034Z,5.00
2018-11-14T23:47:56.224Z,4.33
2018-11-14T23:50:26.647Z,4.93
2018-11-14T23:52:56.765Z,4.33
2018-11-14T23:55:26.551Z,4.43
2018-11-14T23:57:55.809Z,4.53
